createdAt,value
2023-03-07T08:05:08.156Z,99033.03
2023-03-07T08:07:36.116Z,99033.50
2023-03-07T08:10:04.300Z,99038.00
2023-03-07T08:12:32.270Z,99037.31
2023-03-07T08:15:00.214Z,99040.94
2023-03-07T08:17:29.477Z,99041.03
2023-03-07T08:20:01.710Z,99037.44
2023-03-07T08:22:31.221Z,99042.19
2023-03-07T08:24:59.195Z,99038.97
2023-03-07T08:27:27.220Z,99036.97
2023-03-07T08:29:55.203Z,99034.44
2023-03-07T08:32:23.258Z,99035.44
2023-03-07T08:34:51.252Z,99045.28
2023-03-07T08:37:19.253Z,99041.84
2023-03-07T08:39:48.610Z,99039.00
2023-03-07T08:42:16.596Z,99033.22
2023-03-07T08:44:44.557Z,99036.19
2023-03-07T08:47:13.482Z,99037.03
2023-03-07T08:49:41.706Z,99037.91
2023-03-07T08:52:09.672Z,99045.91
2023-03-07T08:54:37.658Z,99037.72
2023-03-07T08:57:07.145Z,99036.50
2023-03-07T08:59:35.073Z,99024.84
2023-03-07T09:02:03.997Z,99031.44
2023-03-07T09:04:33.572Z,99037.00
2023-03-07T09:07:01.835Z,99029.81
2023-03-07T09:09:29.861Z,99031.28
2023-03-07T09:11:57.803Z,99031.41
2023-03-07T09:14:27.137Z,99024.53
2023-03-07T09:16:55.063Z,99022.81
2023-03-07T09:19:23.724Z,99029.13
2023-03-07T09:21:51.778Z,99021.47
2023-03-07T09:24:19.798Z,99017.34
2023-03-07T09:26:47.750Z,99013.56
2023-03-07T09:29:15.734Z,99012.25
2023-03-07T09:31:45.139Z,99009.97
2023-03-07T09:34:13.127Z,99017.88
2023-03-07T09:36:41.331Z,99007.13
2023-03-07T09:39:14.391Z,99004.00
2023-03-07T09:42:06.187Z,99002.34
2023-03-07T09:44:38.274Z,99007.31
2023-03-07T09:47:16.242Z,98993.16
2023-03-07T09:49:47.202Z,99000.88
2023-03-07T09:52:16.223Z,98999.22
2023-03-07T09:54:45.490Z,98994.59
2023-03-07T09:57:17.664Z,98992.16
2023-03-07T09:59:47.115Z,98993.84
2023-03-07T10:02:18.500Z,98995.50
2023-03-07T10:04:49.439Z,98987.81
2023-03-07T10:07:17.435Z,98985.34
2023-03-07T10:09:45.640Z,98976.84
2023-03-07T10:12:28.519Z,98982.19
2023-03-07T10:15:26.790Z,98976.81
2023-03-07T10:18:45.393Z,98970.31
2023-03-07T10:21:19.006Z,98961.81
2023-03-07T10:24:06.416Z,98949.78
2023-03-07T10:26:34.829Z,98961.00
2023-03-07T10:29:03.688Z,98946.22
2023-03-07T10:31:33.409Z,98946.22
2023-03-07T10:34:01.403Z,98942.94
2023-03-07T10:36:35.801Z,98936.56
2023-03-07T10:39:04.843Z,98930.25
2023-03-07T10:41:32.764Z,98907.94
2023-03-07T10:44:00.760Z,98929.91
2023-03-07T10:46:30.201Z,98928.66
2023-03-07T10:49:03.086Z,98929.78
2023-03-07T10:51:50.709Z,98918.84
2023-03-07T10:54:20.159Z,98909.56
2023-03-07T10:57:07.984Z,98920.00
2023-03-07T10:59:36.056Z,98914.34
2023-03-07T11:02:05.955Z,98909.94
2023-03-07T11:04:44.737Z,98905.06
2023-03-07T11:07:27.929Z,98902.31
2023-03-07T11:09:56.300Z,98894.41
2023-03-07T11:12:24.660Z,98894.88
2023-03-07T11:14:53.493Z,98887.78
2023-03-07T11:17:22.172Z,98890.25
2023-03-07T11:19:50.359Z,98890.25
2023-03-07T11:22:23.159Z,98889.06
2023-03-07T11:25:03.218Z,98883.84
2023-03-07T11:27:39.110Z,98880.66
2023-03-07T11:30:28.635Z,98868.56
2023-03-07T11:33:08.632Z,98854.19
2023-03-07T11:35:55.788Z,98859.25
2023-03-07T11:38:30.096Z,98851.22
2023-03-07T11:41:01.472Z,98852.03
2023-03-07T11:43:41.937Z,98838.41
2023-03-07T11:46:11.709Z,98847.66
2023-03-07T11:48:47.790Z,98838.41
2023-03-07T11:51:25.958Z,98841.13
2023-03-07T11:53:57.750Z,98825.16
2023-03-07T11:56:31.036Z,98839.44
2023-03-07T11:59:14.351Z,98834.72
2023-03-07T12:01:44.503Z,98826.97
2023-03-07T12:04:39.782Z,98838.84
2023-03-07T12:07:14.769Z,98819.00
2023-03-07T12:09:46.617Z,98824.25
2023-03-07T12:12:34.427Z,98816.00
2023-03-07T12:15:06.127Z,98826.22
2023-03-07T12:17:41.448Z,98816.94
2023-03-07T12:20:19.931Z,98819.97
2023-03-07T12:23:04.708Z,98818.31
2023-03-07T12:25:34.503Z,98818.28
2023-03-07T12:28:07.377Z,98817.53
2023-03-07T12:30:39.617Z,98806.91
2023-03-07T12:33:07.647Z,98807.75
2023-03-07T12:35:42.429Z,98799.28
2023-03-07T12:38:12.700Z,98791.88
2023-03-07T12:40:42.231Z,98789.50
2023-03-07T12:43:16.145Z,98788.31
2023-03-07T12:45:46.725Z,98788.84
2023-03-07T12:48:19.068Z,98791.84
2023-03-07T12:50:50.244Z,98781.50
2023-03-07T12:53:22.506Z,98783.69
2023-03-07T12:55:51.720Z,98762.34
2023-03-07T12:58:23.379Z,98784.78
2023-03-07T13:00:53.196Z,98780.13
2023-03-07T13:03:24.972Z,98790.19
2023-03-07T13:05:53.009Z,98780.06
2023-03-07T13:08:24.642Z,98794.00
2023-03-07T13:10:52.597Z,98788.56
2023-03-07T13:13:57.026Z,98792.03
2023-03-07T13:16:35.862Z,98787.88
2023-03-07T13:19:49.199Z,98789.78
2023-03-07T13:22:56.611Z,98790.50
2023-03-07T13:25:56.459Z,98782.81
2023-03-07T13:28:52.482Z,98783.84
2023-03-07T13:31:43.879Z,98780.31
2023-03-07T13:34:46.580Z,98772.34
2023-03-07T13:37:48.017Z,98781.38
2023-03-07T13:40:49.786Z,98776.22
2023-03-07T13:43:51.530Z,98761.94
2023-03-07T13:47:01.429Z,98770.03
2023-03-07T13:49:38.132Z,98770.59
2023-03-07T13:52:45.489Z,98769.09
2023-03-07T13:55:27.612Z,98760.94
2023-03-07T13:57:56.986Z,98765.16
2023-03-07T14:00:35.801Z,98764.81
2023-03-07T14:03:03.779Z,98752.50
2023-03-07T14:05:35.181Z,98753.13
2023-03-07T14:08:03.254Z,98755.38
2023-03-07T14:10:31.979Z,98763.63
2023-03-07T14:13:29.765Z,98759.16
2023-03-07T14:16:18.648Z,98752.72
2023-03-07T14:18:52.894Z,98753.44
2023-03-07T14:21:27.999Z,98756.09
2023-03-07T14:24:11.994Z,98752.50
2023-03-07T14:26:40.461Z,98762.03
2023-03-07T14:29:15.645Z,98758.72
2023-03-07T14:31:43.717Z,98759.22
2023-03-07T14:34:19.351Z,98751.19
2023-03-07T14:36:49.261Z,98759.28
2023-03-07T14:39:17.983Z,98752.69
2023-03-07T14:41:48.719Z,98761.78
2023-03-07T14:44:38.250Z,98750.47
2023-03-07T14:47:12.895Z,98751.41
2023-03-07T14:49:43.618Z,98756.50
2023-03-07T14:52:21.452Z,98760.28
2023-03-07T14:54:57.791Z,98748.28
2023-03-07T14:57:29.092Z,98754.28
2023-03-07T15:00:08.546Z,98754.56
2023-03-07T15:02:36.509Z,98753.72
2023-03-07T15:05:05.233Z,98758.59
2023-03-07T15:07:37.099Z,98752.56
2023-03-07T15:10:05.519Z,98755.66
2023-03-07T15:12:33.558Z,98764.78
2023-03-07T15:15:02.537Z,98755.41
2023-03-07T15:17:31.946Z,98749.91
2023-03-07T15:20:00.804Z,98760.69
2023-03-07T15:22:29.815Z,98757.31
2023-03-07T15:24:59.370Z,98756.06
2023-03-07T15:27:28.178Z,98752.69
2023-03-07T15:29:56.204Z,98760.44
2023-03-07T15:32:32.239Z,98742.28
2023-03-07T15:35:00.937Z,98769.50
2023-03-07T15:37:29.720Z,98764.22
2023-03-07T15:39:59.571Z,98756.78
2023-03-07T15:42:27.561Z,98750.53
2023-03-07T15:44:55.817Z,98766.00
2023-03-07T15:47:23.884Z,98758.09
2023-03-07T15:49:52.574Z,98762.72
2023-03-07T15:52:29.387Z,98757.53
2023-03-07T15:54:59.577Z,98739.66
2023-03-07T15:57:28.655Z,98758.25
2023-03-07T15:59:58.389Z,98761.34
2023-03-07T16:02:44.869Z,98756.56
2023-03-07T16:05:33.919Z,98748.44
2023-03-07T16:08:01.954Z,98754.16
2023-03-07T16:10:31.953Z,98753.28
2023-03-07T16:13:00.868Z,98761.53
2023-03-07T16:15:29.256Z,98759.41
2023-03-07T16:17:57.285Z,98760.59
2023-03-07T16:20:26.192Z,98753.25
2023-03-07T16:22:54.212Z,98767.09
2023-03-07T16:25:22.610Z,98768.59
2023-03-07T16:27:54.391Z,98773.00
2023-03-07T16:30:23.744Z,98769.34
2023-03-07T16:32:51.752Z,98772.69
2023-03-07T16:35:20.551Z,98768.94
2023-03-07T16:37:48.750Z,98777.19
2023-03-07T16:40:17.197Z,98772.38
2023-03-07T16:42:45.767Z,98774.16
2023-03-07T16:45:19.586Z,98781.38
2023-03-07T16:47:47.707Z,98782.09
2023-03-07T16:50:16.940Z,98789.84
2023-03-07T16:52:45.039Z,98787.84
2023-03-07T16:55:14.288Z,98788.75
2023-03-07T16:57:42.713Z,98791.34
2023-03-07T17:00:17.556Z,98796.81
2023-03-07T17:02:45.884Z,98800.63
2023-03-07T17:05:17.789Z,98807.09
2023-03-07T17:07:45.765Z,98807.31
2023-03-07T17:10:13.886Z,98808.38
2023-03-07T17:12:42.214Z,98795.75
2023-03-07T17:15:12.499Z,98809.78
2023-03-07T17:17:41.771Z,98812.22
2023-03-07T17:20:12.449Z,98809.69
2023-03-07T17:22:40.429Z,98805.09
2023-03-07T17:25:08.881Z,98811.72
2023-03-07T17:27:37.580Z,98792.63
2023-03-07T17:30:06.033Z,98812.47
2023-03-07T17:32:34.123Z,98813.78
2023-03-07T17:35:03.522Z,98819.31
2023-03-07T17:37:31.487Z,98818.66
2023-03-07T17:40:00.615Z,98826.09
2023-03-07T17:42:28.585Z,98820.31
2023-03-07T17:44:56.528Z,98819.44
2023-03-07T17:47:24.508Z,98815.75
2023-03-07T17:49:52.486Z,98823.00
2023-03-07T17:52:21.848Z,98828.28
2023-03-07T17:54:49.885Z,98831.28
2023-03-07T17:57:18.021Z,98823.84
2023-03-07T17:59:45.969Z,98825.41
2023-03-07T18:02:14.003Z,98828.59
2023-03-07T18:04:42.013Z,98829.09
2023-03-07T18:07:09.995Z,98825.38
2023-03-07T18:09:39.610Z,98827.69
2023-03-07T18:12:08.592Z,98822.53
2023-03-07T18:14:36.576Z,98824.59
2023-03-07T18:17:04.527Z,98834.34
2023-03-07T18:19:32.559Z,98827.31
2023-03-07T18:22:00.518Z,98829.19
2023-03-07T18:24:30.102Z,98829.59
2023-03-07T18:27:00.217Z,98833.13
2023-03-07T18:29:28.346Z,98837.06
2023-03-07T18:31:56.320Z,98840.78
2023-03-07T18:34:25.073Z,98838.88
2023-03-07T18:36:54.293Z,98849.00
2023-03-07T18:39:23.171Z,98850.22
2023-03-07T18:41:51.419Z,98841.53
2023-03-07T18:44:20.744Z,98851.63
2023-03-07T18:46:48.809Z,98849.72
2023-03-07T18:49:17.920Z,98850.94
2023-03-07T18:51:46.221Z,98860.56
2023-03-07T18:54:14.212Z,98854.94
2023-03-07T18:56:42.726Z,98850.97
2023-03-07T18:59:10.706Z,98851.53
2023-03-07T19:01:40.624Z,98845.28
